Time;durP1;ratioP1;P1;durP2;ratioP2;P2;SDS_P1;SDS_P2;PMS_P1;PMS_P2;Temp;Humidity;BMP_temperature;BMP_pressure;BME280_temperature;BME280_humidity;BME280_pressure;Samples;Min_cycle;Max_cycle;Signal;HPM_P1;HPM_P2
2020/12/03 00:00:30;;;;;;;69.75;22.60;;;;;;;-1.37;71.24;95841.47;5006013;28;20085;-67
2020/12/03 00:03:00;;;;;;;65.32;23.73;;;;;;;-1.41;71.74;95835.03;5006428;28;20077;-68
2020/12/03 00:05:26;;;;;;;64.63;22.95;;;;;;;-1.43;71.78;95842.47;5006380;28;20050;-68
2020/12/03 00:07:54;;;;;;;67.97;23.67;;;;;;;-1.68;72.65;95828.91;5005725;28;20053;-67
2020/12/03 00:10:21;;;;;;;68.07;24.92;;;;;;;-1.62;72.43;95842.06;5005985;28;20057;-67
2020/12/03 00:13:05;;;;;;;63.67;24.10;;;;;;;-1.74;72.87;95848.59;5006099;28;20046;-67
2020/12/03 00:15:31;;;;;;;70.28;25.00;;;;;;;-1.79;73.20;95844.03;5007230;28;20045;-67
2020/12/03 00:17:57;;;;;;;65.80;23.92;;;;;;;-1.73;73.34;95844.88;5009448;28;20046;-67
2020/12/03 00:20:23;;;;;;;66.43;23.48;;;;;;;-1.75;73.43;95847.81;5009629;28;20632;-68
2020/12/03 00:22:49;;;;;;;61.03;22.83;;;;;;;-1.62;73.23;95838.56;5012983;28;20041;-68
2020/12/03 00:25:15;;;;;;;62.15;23.80;;;;;;;-1.73;73.49;95842.22;5012117;28;20500;-67
2020/12/03 00:27:48;;;;;;;61.72;24.58;;;;;;;-1.78;73.89;95842.16;5012704;28;20056;-67
2020/12/03 00:30:15;;;;;;;61.55;22.92;;;;;;;-1.79;73.93;95844.03;5012424;28;20042;-67
2020/12/03 00:32:41;;;;;;;59.70;22.77;;;;;;;-1.69;74.03;95829.97;5012838;28;20065;-67
2020/12/03 00:35:07;;;;;;;60.97;23.48;;;;;;;-1.68;73.61;95836.91;5012153;28;20052;-67
2020/12/03 00:37:33;;;;;;;56.83;23.35;;;;;;;-1.68;73.57;95836.91;5012587;28;20046;-67
2020/12/03 00:39:59;;;;;;;65.18;23.15;;;;;;;-1.64;73.38;95838.81;5012344;28;20046;-67
2020/12/03 00:42:25;;;;;;;61.20;23.63;;;;;;;-1.61;73.43;95835.66;5012037;28;20092;-67
2020/12/03 00:44:51;;;;;;;61.25;23.52;;;;;;;-1.50;73.28;95839.22;5012412;28;20046;-67
2020/12/03 00:47:18;;;;;;;65.63;24.67;;;;;;;-1.69;73.01;95832.63;5011821;28;20409;-67
2020/12/03 00:49:44;;;;;;;57.65;23.45;;;;;;;-1.67;73.21;95835.84;5012449;28;20453;-67
2020/12/03 00:52:10;;;;;;;65.70;24.20;;;;;;;-1.78;73.44;95831.47;5012155;28;20088;-67
2020/12/03 00:54:36;;;;;;;61.00;23.63;;;;;;;-1.76;73.78;95840.06;5011885;28;20497;-67
2020/12/03 00:57:03;;;;;;;70.00;25.38;;;;;;;-1.65;73.46;95834.56;5012083;28;20048;-68
2020/12/03 00:59:29;;;;;;;60.42;23.27;;;;;;;-1.55;73.34;95838.38;5012022;28;20052;-67
2020/12/03 01:01:55;;;;;;;61.47;23.52;;;;;;;-1.62;73.31;95838.56;5012054;28;20074;-67
2020/12/03 01:04:22;;;;;;;64.70;24.38;;;;;;;-1.58;73.09;95839.69;5011844;28;20129;-67
2020/12/03 01:06:47;;;;;;;60.95;22.90;;;;;;;-1.52;72.92;95836.00;5012062;28;20038;-67
2020/12/03 01:09:14;;;;;;;62.45;23.75;;;;;;;-1.45;73.18;95841.94;5011488;28;20116;-67
2020/12/03 01:11:40;;;;;;;61.42;23.33;;;;;;;-1.36;72.99;95837.75;5011979;28;20052;-67
2020/12/03 01:14:06;;;;;;;62.42;23.63;;;;;;;-1.41;72.48;95844.88;5011546;28;20061;-68
2020/12/03 01:16:32;;;;;;;62.60;23.40;;;;;;;-1.38;72.44;95844.38;5011904;28;20053;-67
2020/12/03 01:18:58;;;;;;;52.35;23.10;;;;;;;-1.38;72.34;95850.53;5011701;28;20582;-67
2020/12/03 01:21:24;;;;;;;55.63;22.33;;;;;;;-1.50;72.62;95841.91;5011550;28;20133;-67
2020/12/03 01:23:51;;;;;;;66.07;24.45;;;;;;;-1.45;72.84;95841.94;5011724;28;20045;-67
2020/12/03 01:26:17;;;;;;;61.13;24.35;;;;;;;-1.36;72.85;95837.75;5010833;28;20112;-67
2020/12/03 01:28:43;;;;;;;54.78;22.55;;;;;;;-1.34;72.78;95824.94;5011090;28;20042;-67
2020/12/03 01:31:11;;;;;;;65.13;22.92;;;;;;;-1.33;72.99;95823.88;5011125;28;20046;-67
2020/12/03 01:33:37;;;;;;;59.13;23.13;;;;;;;-1.28;72.89;95819.63;5011534;28;20050;-68
2020/12/03 01:36:03;;;;;;;57.47;23.42;;;;;;;-1.27;72.78;95818.56;5011320;28;20045;-68
2020/12/03 01:38:30;;;;;;;63.35;24.40;;;;;;;-1.25;72.49;95816.44;5011393;28;20092;-68
2020/12/03 01:40:56;;;;;;;56.45;23.02;;;;;;;-1.23;72.43;95817.00;5011452;28;20055;-67
2020/12/03 01:43:22;;;;;;;59.60;22.63;;;;;;;-1.24;72.36;95812.72;5011289;28;20090;-67
2020/12/03 01:45:54;;;;;;;58.13;22.95;;;;;;;-1.28;72.24;95814.28;5011345;28;20042;-67
2020/12/03 01:48:33;;;;;;;59.50;23.77;;;;;;;-1.27;72.42;95810.56;5010753;28;20053;-67
2020/12/03 01:51:01;;;;;;;62.67;24.23;;;;;;;-1.36;72.31;95811.03;5011038;28;20038;-67
2020/12/03 01:53:27;;;;;;;63.83;24.05;;;;;;;-1.37;72.59;95809.41;5011009;28;20053;-67
2020/12/03 01:55:55;;;;;;;59.45;21.40;;;;;;;-1.29;72.63;95812.69;5010994;28;20049;-67
2020/12/03 01:58:32;;;;;;;70.35;22.75;;;;;;;-1.31;72.82;95812.91;5010789;28;20069;-67
2020/12/03 02:00:59;;;;;;;73.07;23.83;;;;;;;-1.36;72.68;95810.22;5011029;28;20049;-67
2020/12/03 02:03:25;;;;;;;76.30;24.50;;;;;;;-1.31;72.75;95804.91;5010641;28;20057;-68
2020/12/03 02:05:51;;;;;;;80.47;24.10;;;;;;;-1.34;72.81;95808.09;5011076;28;20065;-67
2020/12/03 02:08:17;;;;;;;76.68;22.05;;;;;;;-1.29;73.03;95804.66;5010611;28;20045;-67
2020/12/03 02:10:43;;;;;;;65.90;23.67;;;;;;;-1.27;73.13;95808.69;5011073;28;20046;-67
2020/12/03 02:13:10;;;;;;;63.63;23.20;;;;;;;-1.22;73.38;95808.72;5010647;28;20511;-68
2020/12/03 02:15:36;;;;;;;60.22;24.15;;;;;;;-1.20;73.29;95808.44;5010921;28;20068;-67
2020/12/03 02:18:04;;;;;;;69.30;24.60;;;;;;;-1.21;72.94;95802.31;5010332;28;20053;-68
2020/12/03 02:20:31;;;;;;;57.78;22.83;;;;;;;-1.20;72.84;95797.78;5010745;28;20049;-67
2020/12/03 02:22:57;;;;;;;55.72;22.05;;;;;;;-1.19;72.63;95794.06;5010435;28;20080;-67
2020/12/03 02:25:23;;;;;;;68.13;24.25;;;;;;;-1.17;72.64;95797.28;5010112;28;20049;-67
2020/12/03 02:27:49;;;;;;;61.58;24.23;;;;;;;-1.20;72.41;95787.91;5010708;28;20093;-67
2020/12/03 02:30:15;;;;;;;62.35;23.08;;;;;;;-1.17;72.50;95786.59;5010077;28;20524;-68
2020/12/03 02:32:42;;;;;;;59.15;22.83;;;;;;;-1.20;72.39;95790.59;5010537;28;20434;-67
2020/12/03 02:35:11;;;;;;;61.40;23.70;;;;;;;-1.19;72.45;95788.72;5010186;28;20042;-68
2020/12/03 02:37:38;;;;;;;64.57;24.77;;;;;;;-1.24;72.67;95791.34;5010566;28;20041;-67
2020/12/03 02:40:05;;;;;;;57.78;22.73;;;;;;;-1.25;72.67;95784.38;5009171;28;20037;-67
2020/12/03 02:42:31;;;;;;;64.50;23.98;;;;;;;-1.26;72.74;95788.13;5010611;28;20046;-67
2020/12/03 02:44:57;;;;;;;68.28;24.13;;;;;;;-1.21;72.75;95785.47;5010200;28;20057;-67
2020/12/03 02:47:24;;;;;;;62.33;23.60;;;;;;;-1.20;72.85;95787.09;5009811;28;20585;-68
2020/12/03 02:49:51;;;;;;;61.28;23.17;;;;;;;-1.16;72.87;95782.84;5010522;28;20046;-67
2020/12/03 02:52:19;;;;;;;68.38;24.75;;;;;;;-1.14;72.77;95775.41;5009550;28;20057;-67
2020/12/03 02:54:47;;;;;;;58.25;23.52;;;;;;;-1.12;72.88;95775.94;5006386;28;20049;-67
2020/12/03 02:57:13;;;;;;;63.53;23.58;;;;;;;-1.12;72.74;95778.59;5009843;28;20394;-68
2020/12/03 02:59:39;;;;;;;58.63;23.90;;;;;;;-1.25;72.77;95774.53;5010040;28;20045;-67
2020/12/03 03:02:05;;;;;;;62.17;23.77;;;;;;;-1.28;73.09;95768.88;5009851;28;20042;-67
2020/12/03 03:04:32;;;;;;;61.05;24.58;;;;;;;-1.28;73.63;95752.84;5010311;28;20049;-68
2020/12/03 03:06:58;;;;;;;67.10;23.83;;;;;;;-1.48;74.38;95759.66;5010143;28;20046;-67
2020/12/03 03:09:24;;;;;;;61.72;23.92;;;;;;;-1.45;75.00;95758.34;5009620;28;20081;-67
2020/12/03 03:11:52;;;;;;;68.90;24.38;;;;;;;-1.39;75.11;95760.78;5010092;28;20042;-67
2020/12/03 03:14:18;;;;;;;71.60;24.23;;;;;;;-1.36;75.23;95757.63;5009508;28;20045;-67
2020/12/03 03:16:47;;;;;;;67.10;23.92;;;;;;;-1.37;74.92;95766.69;5010012;28;20409;-67
2020/12/03 03:19:13;;;;;;;66.28;24.65;;;;;;;-1.30;74.73;95769.16;5009567;28;20038;-67
2020/12/03 03:21:39;;;;;;;60.45;22.30;;;;;;;-1.30;74.53;95760.34;5009951;28;20050;-67
2020/12/03 03:24:05;;;;;;;65.85;24.00;;;;;;;-1.26;74.61;95750.72;5009131;28;20046;-67
2020/12/03 03:26:31;;;;;;;68.63;25.13;;;;;;;-1.19;74.71;95748.66;5009913;28;20409;-67
2020/12/03 03:28:58;;;;;;;62.78;24.42;;;;;;;-1.22;74.46;95746.47;5009754;28;20044;-67
2020/12/03 03:31:24;;;;;;;60.58;22.58;;;;;;;-1.14;74.38;95746.81;5009410;28;20057;-68
2020/12/03 03:33:50;;;;;;;61.67;23.25;;;;;;;-1.09;74.33;95740.69;5009831;28;20038;-67
2020/12/03 03:36:16;;;;;;;60.50;22.52;;;;;;;-1.05;74.10;95731.06;5009318;28;20065;-68
2020/12/03 03:38:43;;;;;;;65.47;23.98;;;;;;;-1.06;74.21;95727.59;5009614;28;20077;-67
2020/12/03 03:41:09;;;;;;;64.20;23.15;;;;;;;-1.05;74.11;95712.38;5009357;28;20061;-67
2020/12/03 03:43:35;;;;;;;64.88;23.17;;;;;;;-1.03;74.17;95707.59;5009995;28;20141;-67
2020/12/03 03:46:03;;;;;;;68.72;23.02;;;;;;;-1.06;74.30;95713.44;5009439;28;20049;-68
2020/12/03 03:48:29;;;;;;;62.35;23.63;;;;;;;-1.13;74.43;95711.00;5009538;28;20060;-67
2020/12/03 03:50:55;;;;;;;67.78;24.13;;;;;;;-1.22;74.84;95703.72;5011121;28;20676;-67
2020/12/03 03:53:21;;;;;;;66.78;23.98;;;;;;;-1.24;74.81;95708.53;5012665;28;20060;-67
2020/12/03 03:55:47;;;;;;;66.60;22.83;;;;;;;-1.23;74.99;95707.47;5013499;28;20078;-67
2020/12/03 03:58:13;;;;;;;69.93;23.85;;;;;;;-1.18;75.05;95702.97;5012987;28;20069;-67
2020/12/03 04:00:41;;;;;;;73.13;24.20;;;;;;;-1.25;74.88;95689.03;5013071;28;20121;-67
2020/12/03 04:03:12;;;;;;;71.65;24.80;;;;;;;-1.27;75.46;95685.00;5012864;28;20042;-68
2020/12/03 04:05:38;;;;;;;65.68;24.00;;;;;;;-1.25;75.06;95689.03;5012835;28;20432;-67
2020/12/03 04:08:04;;;;;;;66.43;23.48;;;;;;;-1.26;74.98;95686.63;5012720;28;20073;-67
2020/12/03 04:10:30;;;;;;;57.22;22.10;;;;;;;-1.27;74.97;95682.34;5013032;28;20490;-67
2020/12/03 04:12:56;;;;;;;67.82;24.08;;;;;;;-1.26;75.06;95675.94;5013125;28;20064;-67
2020/12/03 04:15:22;;;;;;;73.47;23.60;;;;;;;-1.35;75.23;95672.97;5012820;28;20042;-67
2020/12/03 04:17:48;;;;;;;71.65;23.67;;;;;;;-1.41;75.52;95666.78;5013037;28;20548;-67
2020/12/03 04:20:16;;;;;;;66.22;23.58;;;;;;;-1.44;75.60;95661.97;5012508;28;20449;-67
2020/12/03 04:22:42;;;;;;;70.90;24.92;;;;;;;-1.45;75.33;95665.69;5012784;28;20053;-67
2020/12/03 04:25:08;;;;;;;68.28;24.52;;;;;;;-1.51;75.79;95664.06;5012067;28;20042;-68
2020/12/03 04:27:34;;;;;;;63.60;22.52;;;;;;;-1.55;76.04;95670.19;5012752;28;20138;-67
2020/12/03 04:30:00;;;;;;;74.13;25.17;;;;;;;-1.58;76.00;95663.47;5012878;28;20458;-67
2020/12/03 04:32:26;;;;;;;61.15;24.08;;;;;;;-1.47;76.05;95681.16;5012485;28;20065;-67
2020/12/03 04:34:52;;;;;;;57.10;21.52;;;;;;;-1.39;75.91;95672.66;5012684;28;20056;-67
2020/12/03 04:37:19;;;;;;;65.80;24.00;;;;;;;-1.41;75.38;95674.81;5012103;28;20042;-67
2020/12/03 04:39:45;;;;;;;64.78;23.00;;;;;;;-1.34;75.32;95669.22;5012472;28;20050;-67
2020/12/03 04:42:21;;;;;;;65.78;22.58;;;;;;;-1.28;75.13;95672.72;5011998;28;20049;-68
2020/12/03 04:44:48;;;;;;;59.45;21.98;;;;;;;-1.17;74.88;95677.03;5012673;28;20448;-67
2020/12/03 04:47:38;;;;;;;64.95;23.35;;;;;;;-1.10;74.27;95680.28;5011954;28;20046;-67
2020/12/03 04:50:11;;;;;;;66.22;22.27;;;;;;;-1.14;74.11;95673.88;5011979;28;20481;-68
2020/12/03 04:52:59;;;;;;;47.45;15.70;;;;;;;-1.06;73.99;95681.38;5012179;28;20046;-67
2020/12/03 04:55:31;;;;;;;59.97;23.02;;;;;;;-1.12;73.92;95683.22;4992309;28;20048;-67
2020/12/03 04:58:04;;;;;;;59.05;20.40;;;;;;;-1.01;73.87;95678.72;4992510;28;20049;-67
2020/12/03 05:00:41;;;;;;;60.28;21.98;;;;;;;-0.97;73.41;95681.69;4992400;28;20481;-67
2020/12/03 05:03:27;;;;;;;54.92;20.17;;;;;;;-0.94;73.28;95667.78;4991202;28;20050;-67
2020/12/03 05:06:04;;;;;;;61.20;21.92;;;;;;;-0.90;73.06;95658.97;4992331;28;20070;-68
2020/12/03 05:08:38;;;;;;;58.53;21.45;;;;;;;-0.89;72.89;95649.91;4992283;28;20042;-67
2020/12/03 05:11:13;;;;;;;61.70;22.40;;;;;;;-0.86;73.03;95644.03;4991932;28;20053;-68
2020/12/03 05:13:47;;;;;;;54.88;20.83;;;;;;;-0.80;72.90;95642.19;4992542;28;20054;-67
2020/12/03 05:16:17;;;;;;;56.28;21.02;;;;;;;-0.73;73.12;95639.25;4991973;28;20050;-67
2020/12/03 05:18:53;;;;;;;53.42;21.23;;;;;;;-0.68;73.18;95633.91;4992288;28;20670;-67
2020/12/03 05:21:22;;;;;;;56.92;21.20;;;;;;;-0.64;73.12;95630.44;4991928;28;20543;-67
2020/12/03 05:23:49;;;;;;;58.28;21.05;;;;;;;-0.59;73.02;95616.28;5003308;28;20049;-67
2020/12/03 05:26:18;;;;;;;60.58;22.08;;;;;;;-0.53;72.88;95631.25;5011343;28;20042;-67
2020/12/03 05:28:53;;;;;;;57.67;21.45;;;;;;;-0.51;72.77;95647.88;5011541;28;20041;-67
2020/12/03 05:31:26;;;;;;;57.20;21.58;;;;;;;-0.50;72.67;95644.13;5011219;28;20042;-68
2020/12/03 05:33:52;;;;;;;50.70;21.50;;;;;;;-0.50;72.32;95646.78;5011321;28;20037;-68
2020/12/03 05:36:32;;;;;;;55.40;20.98;;;;;;;-0.46;72.23;95655.09;5010758;28;20053;-67
2020/12/03 05:39:02;;;;;;;59.20;21.52;;;;;;;-0.44;72.04;95666.31;5011409;28;20054;-68
2020/12/03 05:41:31;;;;;;;53.15;20.77;;;;;;;-0.40;71.83;95678.91;5011255;28;20042;-68
2020/12/03 05:43:57;;;;;;;51.00;19.13;;;;;;;-0.38;71.76;95666.06;5011440;28;20050;-67
2020/12/03 05:46:25;;;;;;;54.83;20.83;;;;;;;-0.37;71.55;95640.91;5010945;28;20591;-67
2020/12/03 05:48:59;;;;;;;57.03;21.27;;;;;;;-0.37;71.46;95651.59;5011278;28;20387;-67
2020/12/03 05:51:28;;;;;;;48.72;18.80;;;;;;;-0.36;71.43;95645.22;5011003;28;20046;-67
2020/12/03 05:54:01;;;;;;;56.67;21.02;;;;;;;-0.36;71.45;95637.19;5010651;28;20049;-67
2020/12/03 05:56:31;;;;;;;60.25;21.70;;;;;;;-0.36;71.43;95631.84;5011076;28;20034;-68
2020/12/03 05:59:12;;;;;;;50.92;20.52;;;;;;;-0.35;71.40;95622.75;5010929;28;20395;-67
2020/12/03 06:01:46;;;;;;;56.70;21.52;;;;;;;-0.34;71.34;95635.03;5010995;28;20425;-67
2020/12/03 06:04:22;;;;;;;55.63;20.50;;;;;;;-0.36;71.33;95645.22;5010479;28;20050;-68
2020/12/03 06:07:13;;;;;;;56.53;20.63;;;;;;;-0.35;71.38;95649.50;5010902;28;20521;-67
2020/12/03 06:10:01;;;;;;;55.75;20.48;;;;;;;-0.36;71.37;95653.25;5010661;28;20064;-68
2020/12/03 06:12:41;;;;;;;56.95;21.73;;;;;;;-0.35;71.47;95654.84;5010911;28;20529;-67
2020/12/03 06:15:23;;;;;;;54.00;20.17;;;;;;;-0.34;71.63;95645.75;5010069;28;20598;-67
2020/12/03 06:18:22;;;;;;;55.35;21.08;;;;;;;-0.32;71.68;95656.97;5010678;28;20052;-67
2020/12/03 06:21:07;;;;;;;56.88;20.77;;;;;;;-0.35;71.54;95654.84;5010582;28;20045;-67
2020/12/03 06:23:46;;;;;;;54.15;20.90;;;;;;;-0.31;71.66;95660.47;5009953;28;20074;-67
2020/12/03 06:26:22;;;;;;;53.65;19.40;;;;;;;-0.31;71.64;95661.28;5010347;28;20042;-67
2020/12/03 06:29:04;;;;;;;52.65;20.50;;;;;;;-0.31;71.82;95663.94;5010358;28;20489;-67
2020/12/03 06:31:38;;;;;;;56.88;22.23;;;;;;;-0.33;71.93;95658.03;5010222;28;20046;-67
2020/12/03 06:34:18;;;;;;;55.35;20.77;;;;;;;-0.31;71.87;95650.56;5010084;28;20052;-68
2020/12/03 06:36:53;;;;;;;54.38;20.42;;;;;;;-0.29;71.99;95648.41;5010410;28;20034;-68
2020/12/03 06:39:25;;;;;;;53.63;22.13;;;;;;;-0.27;72.01;95643.59;5009906;28;20065;-67
2020/12/03 06:41:56;;;;;;;53.65;22.42;;;;;;;-0.27;72.06;95640.91;5010350;28;20053;-67
2020/12/03 06:44:33;;;;;;;58.50;22.13;;;;;;;-0.28;71.63;95642.00;5010139;28;20045;-67
2020/12/03 06:47:22;;;;;;;49.63;18.58;;;;;;;-0.29;71.73;95648.41;5010214;28;20413;-68
2020/12/03 06:50:16;;;;;;;51.33;19.63;;;;;;;-0.32;71.84;95654.28;5010051;28;20056;-67
2020/12/03 06:53:10;;;;;;;52.13;20.73;;;;;;;-0.28;71.93;95657.25;5010149;28;20038;-67
2020/12/03 06:55:54;;;;;;;;;;;;;;;-0.30;71.44;95662.06;4990705;28;20030;-67
2020/12/03 06:58:54;;;;;;;47.33;18.88;;;;;;;-0.30;71.76;95657.53;4990419;28;19922;-67
2020/12/03 07:02:03;;;;;;;51.42;19.60;;;;;;;-0.27;71.74;95654.28;4990146;28;20058;-67
2020/12/03 07:05:02;;;;;;;55.25;20.98;;;;;;;-0.31;71.61;95655.91;4990458;28;20042;-68
2020/12/03 07:08:08;;;;;;;68.72;24.27;;;;;;;-0.29;71.79;95648.41;4990060;28;20053;-68
2020/12/03 07:10:54;;;;;;;62.08;21.13;;;;;;;-0.28;71.89;95639.31;4990807;28;20046;-67
2020/12/03 07:14:01;;;;;;;50.53;19.98;;;;;;;-0.30;72.05;95644.16;4990553;28;20056;-67
2020/12/03 07:17:00;;;;;;;53.45;19.67;;;;;;;-0.36;72.14;95636.38;4992791;28;20052;-72
2020/12/03 07:19:56;;;;;;;63.45;22.00;;;;;;;-0.36;72.02;95637.19;5004335;28;20050;-70
2020/12/03 07:22:26;;;;;;;53.30;19.58;;;;;;;-0.33;72.04;95630.50;5006236;28;20058;-71
2020/12/03 07:24:54;;;;;;;69.03;22.75;;;;;;;-0.30;72.23;95636.13;5002935;28;20897;-70
2020/12/03 07:27:52;;;;;;;58.58;22.77;;;;;;;-0.29;72.14;95629.69;5010732;28;20057;-71
2020/12/03 07:30:32;;;;;;;62.38;21.80;;;;;;;-0.26;72.28;95625.69;5010383;28;20053;-71
2020/12/03 07:33:03;;;;;;;60.03;22.40;;;;;;;-0.23;72.35;95624.34;5010946;28;20046;-71
2020/12/03 07:35:35;;;;;;;54.00;20.95;;;;;;;-0.21;72.43;95619.53;5010710;28;20448;-71
2020/12/03 07:38:12;;;;;;;62.50;22.23;;;;;;;-0.20;72.26;95621.94;5010462;28;20060;-72
2020/12/03 07:40:38;;;;;;;58.30;21.98;;;;;;;-0.14;72.20;95622.75;5010983;28;20053;-71
2020/12/03 07:43:07;;;;;;;55.17;22.02;;;;;;;-0.10;71.56;95629.19;5010219;28;20050;-71
2020/12/03 07:45:43;;;;;;;52.05;20.90;;;;;;;-0.06;71.75;95624.88;5010612;28;20050;-71
2020/12/03 07:48:18;;;;;;;59.58;22.00;;;;;;;-0.02;71.41;95631.31;5009802;28;20061;-72
2020/12/03 07:51:23;;;;;;;59.20;22.00;;;;;;;0.01;71.40;95628.09;5010687;28;20046;-71
2020/12/03 07:54:24;;;;;;;59.35;23.38;;;;;;;0.06;71.27;95621.94;5007971;28;20042;-72
2020/12/03 07:56:51;;;;;;;55.40;21.42;;;;;;;0.10;71.39;95626.47;5030101;28;20099;-72
2020/12/03 07:59:37;;;;;;;62.85;22.88;;;;;;;0.10;71.03;95623.78;5029398;28;20061;-72
2020/12/03 08:02:24;;;;;;;58.03;21.10;;;;;;;0.11;70.92;95624.63;5014517;28;20038;-72
2020/12/03 08:04:50;;;;;;;54.72;21.42;;;;;;;0.09;70.87;95622.19;5009998;28;20046;-71
2020/12/03 08:07:32;;;;;;;66.57;23.80;;;;;;;0.12;70.77;95613.63;5006899;28;20456;-72
2020/12/03 08:09:59;;;;;;;58.03;22.15;;;;;;;0.15;70.66;95615.75;4990466;28;20050;-70
2020/12/03 08:12:28;;;;;;;54.90;21.33;;;;;;;0.08;70.96;95609.88;4990435;28;20046;-71
2020/12/03 08:14:55;;;;;;;63.28;21.77;;;;;;;0.14;71.00;95616.03;4990531;28;20050;-70
2020/12/03 08:17:45;;;;;;;57.90;22.77;;;;;;;0.06;70.99;95612.03;4989867;28;20047;-71
2020/12/03 08:20:23;;;;;;;56.88;21.25;;;;;;;0.16;71.16;95619.25;4989846;28;20046;-71
2020/12/03 08:22:55;;;;;;;61.10;22.20;;;;;;;0.23;70.88;95617.09;4990116;28;20057;-71
2020/12/03 08:25:26;;;;;;;66.20;21.85;;;;;;;0.22;70.43;95616.28;5027943;28;20052;-72
2020/12/03 08:28:00;;;;;;;63.88;23.50;;;;;;;0.20;70.75;95621.09;5011496;28;20424;-71
2020/12/03 08:30:36;;;;;;;55.78;21.20;;;;;;;0.35;71.38;95616.78;5029099;28;20621;-71
2020/12/03 08:33:27;;;;;;;61.63;22.17;;;;;;;0.33;70.70;95610.91;5028960;28;20050;-72
2020/12/03 08:35:56;;;;;;;59.17;20.88;;;;;;;0.46;70.70;95610.34;5029412;28;20087;-70
2020/12/03 08:38:25;;;;;;;59.63;22.35;;;;;;;0.57;70.69;95606.56;5028625;28;20045;-71
2020/12/03 08:40:53;;;;;;;55.42;20.70;;;;;;;0.62;69.80;95601.19;5028946;28;20041;-71
2020/12/03 08:43:19;;;;;;;54.50;20.90;;;;;;;0.64;69.72;95596.38;5028693;28;20344;-71
2020/12/03 08:45:53;;;;;;;55.80;20.88;;;;;;;0.64;69.65;95596.38;5028729;28;20424;-70
2020/12/03 08:48:28;;;;;;;54.85;21.63;;;;;;;0.73;69.67;95592.06;5028311;28;20541;-71
2020/12/03 08:50:59;;;;;;;58.92;22.38;;;;;;;0.81;69.93;95589.88;5029151;28;20401;-70
2020/12/03 08:53:31;;;;;;;61.00;21.08;;;;;;;0.85;69.97;95577.53;5019749;28;20646;-71
2020/12/03 08:56:08;;;;;;;58.10;22.30;;;;;;;0.93;69.67;95579.63;5009202;28;20133;-71
2020/12/03 08:58:35;;;;;;;61.63;21.52;;;;;;;1.02;69.94;95576.09;5008644;28;20072;-71
2020/12/03 09:01:03;;;;;;;55.42;21.23;;;;;;;1.01;68.87;95579.06;5008916;28;20056;-72
2020/12/03 09:03:32;;;;;;;65.95;23.20;;;;;;;1.01;69.00;95574.50;5009011;28;20049;-71
2020/12/03 09:05:59;;;;;;;60.47;20.85;;;;;;;0.99;68.40;95573.16;5008771;28;20053;-71
2020/12/03 09:08:25;;;;;;;52.83;20.73;;;;;;;1.00;68.70;95574.78;5008118;28;20046;-72
2020/12/03 09:10:57;;;;;;;57.95;21.30;;;;;;;1.03;68.31;95568.84;5008731;28;20054;-72
2020/12/03 09:13:24;;;;;;;59.47;21.88;;;;;;;1.05;68.76;95569.38;5008656;28;20053;-71
2020/12/03 09:15:55;;;;;;;59.65;21.23;;;;;;;1.10;69.10;95571.22;5008666;28;20158;-72
2020/12/03 09:18:21;;;;;;;65.20;23.02;;;;;;;1.15;68.78;95563.97;5007994;28;20068;-72
2020/12/03 09:20:48;;;;;;;55.15;21.92;;;;;;;1.22;68.86;95564.47;5008513;28;20060;-71
2020/12/03 09:23:22;;;;;;;56.20;21.27;;;;;;;1.28;68.02;95557.97;5007657;28;20053;-71
2020/12/03 09:25:48;;;;;;;52.72;20.42;;;;;;;1.29;67.51;95556.09;5008352;28;20054;-71
2020/12/03 09:28:14;;;;;;;52.55;20.10;;;;;;;1.36;67.80;95563.81;5008088;28;20038;-71
2020/12/03 09:30:44;;;;;;;51.13;21.60;;;;;;;1.42;67.15;95558.16;5008427;28;20448;-71
2020/12/03 09:33:14;;;;;;;55.65;20.80;;;;;;;1.44;67.24;95560.56;5007886;28;20081;-71
2020/12/03 09:35:42;;;;;;;54.35;21.55;;;;;;;1.45;66.85;95560.25;5008264;28;20064;-72
2020/12/03 09:38:10;;;;;;;56.55;21.13;;;;;;;1.48;66.94;95556.25;5007849;28;20057;-72
2020/12/03 09:40:37;;;;;;;55.65;21.80;;;;;;;1.47;66.93;95558.13;5008040;28;20049;-72
2020/12/03 09:43:04;;;;;;;51.50;20.38;;;;;;;1.41;66.94;95551.19;5007650;28;20408;-72
2020/12/03 09:45:35;;;;;;;51.22;20.98;;;;;;;1.53;67.09;95548.16;5008027;28;20137;-72
2020/12/03 09:48:02;;;;;;;53.83;21.45;;;;;;;1.53;67.05;95548.16;5006608;28;20571;-72
2020/12/03 09:50:28;;;;;;;56.90;22.92;;;;;;;1.41;67.26;95540.47;5008120;28;20045;-71
2020/12/03 09:52:55;;;;;;;55.92;21.48;;;;;;;1.52;67.64;95533.13;5007726;28;20046;-71
2020/12/03 09:55:22;;;;;;;51.47;20.13;;;;;;;1.63;67.79;95526.59;5027099;28;20049;-72
2020/12/03 09:57:55;;;;;;;51.67;20.63;;;;;;;1.71;68.10;95525.19;5027308;28;20056;-71
2020/12/03 10:00:26;;;;;;;48.97;19.50;;;;;;;1.74;67.60;95525.44;5026782;28;20068;-72
2020/12/03 10:03:26;;;;;;;53.10;21.05;;;;;;;1.82;66.86;95514.06;5027215;28;20327;-71
2020/12/03 10:06:04;;;;;;;49.13;18.25;;;;;;;1.75;66.33;95502.88;5027327;28;20037;-71
2020/12/03 10:08:55;;;;;;;60.42;21.27;;;;;;;1.68;66.27;95506.97;5025814;28;20440;-71
2020/12/03 10:11:45;;;;;;;47.88;20.63;;;;;;;1.76;66.62;95496.41;5026229;28;20072;-71
2020/12/03 10:14:44;;;;;;;56.42;20.83;;;;;;;1.78;66.56;95491.59;5026072;28;20079;-71
2020/12/03 10:17:14;;;;;;;53.20;21.25;;;;;;;1.63;66.55;95489.03;5011369;28;20049;-71
2020/12/03 10:19:41;;;;;;;51.97;21.13;;;;;;;1.73;67.12;95486.25;5027131;28;20509;-71
2020/12/03 10:22:11;;;;;;;46.38;19.10;;;;;;;1.79;66.94;95477.06;5026730;28;20053;-72
2020/12/03 10:24:43;;;;;;;55.63;18.95;;;;;;;1.89;66.83;95472.69;5008305;28;20052;-71
2020/12/03 10:27:18;;;;;;;44.42;17.55;;;;;;;1.90;66.06;95461.66;5006578;28;20046;-72
2020/12/03 10:29:47;;;;;;;49.08;18.15;;;;;;;1.76;66.03;95458.84;5006841;28;20050;-71
2020/12/03 10:32:16;;;;;;;44.80;17.27;;;;;;;1.86;66.05;95460.63;5006580;28;20052;-71
2020/12/03 10:34:45;;;;;;;44.63;18.17;;;;;;;1.89;65.85;95459.28;5007655;28;20049;-72
2020/12/03 10:37:20;;;;;;;50.60;19.65;;;;;;;1.87;66.00;95464.09;5006742;28;20045;-71
2020/12/03 10:39:52;;;;;;;44.42;17.67;;;;;;;1.94;65.96;95446.59;5007252;28;20038;-71
2020/12/03 10:42:22;;;;;;;46.33;18.60;;;;;;;2.03;66.44;95438.69;5006927;28;20053;-71
2020/12/03 10:44:51;;;;;;;41.92;17.83;;;;;;;2.09;66.08;95442.94;5007283;28;20049;-71
2020/12/03 10:47:21;;;;;;;42.70;18.50;;;;;;;2.13;65.76;95430.50;5006483;28;20065;-71
2020/12/03 10:49:49;;;;;;;44.33;18.02;;;;;;;2.17;65.19;95418.13;5006990;28;20045;-72
2020/12/03 10:52:15;;;;;;;47.75;19.08;;;;;;;2.21;65.74;95416.47;5006667;28;20053;-72
2020/12/03 10:54:41;;;;;;;40.42;18.48;;;;;;;2.16;65.72;95415.72;5006607;28;20045;-72
2020/12/03 10:57:18;;;;;;;44.38;18.27;;;;;;;2.20;65.16;95412.19;5006328;28;20124;-72
2020/12/03 10:59:45;;;;;;;36.67;17.42;;;;;;;2.18;64.96;95398.22;5006689;28;20784;-72
2020/12/03 11:02:32;;;;;;;47.15;18.90;;;;;;;2.29;65.34;95388.16;5006652;28;20053;-72
2020/12/03 11:04:59;;;;;;;41.58;17.02;;;;;;;2.40;65.04;95386.91;5007395;28;20050;-72
2020/12/03 11:07:25;;;;;;;40.13;16.92;;;;;;;2.53;64.70;95374.66;5006182;28;20057;-71
2020/12/03 11:09:53;;;;;;;37.17;17.48;;;;;;;2.65;63.85;95376.91;5007227;28;20398;-71
2020/12/03 11:12:19;;;;;;;40.17;16.83;;;;;;;2.68;63.00;95365.59;5006585;28;20058;-71
2020/12/03 11:14:47;;;;;;;43.70;17.98;;;;;;;2.76;62.74;95359.53;5006738;28;20041;-70
2020/12/03 11:17:32;;;;;;;40.50;16.55;;;;;;;2.82;62.49;95364.56;5006287;28;20069;-71
2020/12/03 11:20:01;;;;;;;35.97;16.17;;;;;;;2.91;62.80;95345.84;5007104;28;20585;-70
2020/12/03 11:23:02;;;;;;;34.90;16.15;;;;;;;2.92;61.74;95338.59;5006654;28;20060;-71
2020/12/03 11:25:29;;;;;;;36.15;15.85;;;;;;;3.03;60.52;95335.44;4987018;28;20050;-71
2020/12/03 11:27:59;;;;;;;34.75;16.10;;;;;;;3.12;60.63;95327.50;4987110;28;20038;-71
2020/12/03 11:30:28;;;;;;;37.78;16.92;;;;;;;3.22;61.00;95323.81;4986844;28;20046;-71
2020/12/03 11:32:55;;;;;;;34.10;15.23;;;;;;;3.35;60.20;95318.47;4987394;28;20516;-71
2020/12/03 11:35:26;;;;;;;36.65;15.55;;;;;;;3.42;60.14;95314.59;4986858;28;20055;-71
2020/12/03 11:37:53;;;;;;;37.70;15.40;;;;;;;3.35;58.84;95310.41;4986712;28;20502;-71
2020/12/03 11:40:27;;;;;;;35.45;15.68;;;;;;;3.20;57.90;95316.06;4986635;28;20054;-72